Time;durP1;ratioP1;P1;durP2;ratioP2;P2;SDS_P1;SDS_P2;PMS_P1;PMS_P2;Temp;Humidity;BMP_temperature;BMP_pressure;BME280_temperature;BME280_humidity;BME280_pressure;Samples;Min_cycle;Max_cycle;Signal;HPM_P1;HPM_P2
2022/10/22 00:00:57;;;;;;;2.28;1.08;;;16.50;98.00;;;;;;5041598;28;20024;-73
2022/10/22 00:03:32;;;;;;;1.40;1.10;;;16.50;98.00;;;;;;5059341;28;20025;-74
2022/10/22 00:06:07;;;;;;;0.30;0.20;;;16.50;98.00;;;;;;5059170;28;20032;-72
2022/10/22 00:08:33;;;;;;;0.60;0.50;;;16.50;98.00;;;;;;5059298;28;20014;-74
2022/10/22 00:11:16;;;;;;;6.18;0.82;;;16.40;98.00;;;;;;5059200;28;20027;-72
2022/10/22 00:13:49;;;;;;;1.23;0.88;;;16.40;98.00;;;;;;5041178;28;20108;-72
2022/10/22 00:16:24;;;;;;;0.52;0.40;;;16.30;98.00;;;;;;5058832;28;20344;-74
2022/10/22 00:18:50;;;;;;;0.67;0.67;;;16.30;98.00;;;;;;5059414;28;20021;-73
2022/10/22 00:21:35;;;;;;;0.45;0.40;;;16.30;98.00;;;;;;5059051;28;20163;-73
2022/10/22 00:24:09;;;;;;;1.02;0.93;;;16.30;98.00;;;;;;5058952;28;20100;-73
2022/10/22 00:30:12;;;;;;;1.45;0.35;;;16.30;98.00;;;;;;5059107;28;20024;-73
2022/10/22 00:32:47;;;;;;;0.70;0.47;;;16.30;98.00;;;;;;5040827;28;20360;-73
2022/10/22 00:35:22;;;;;;;0.70;0.70;;;16.20;98.00;;;;;;5040922;28;20105;-74
2022/10/22 00:37:48;;;;;;;0.50;0.50;;;16.20;98.00;;;;;;5058764;28;20017;-73
2022/10/22 00:40:57;;;;;;;1.42;1.33;;;16.10;98.00;;;;;;5023541;28;20021;-74
2022/10/22 00:43:33;;;;;;;0.55;0.50;;;16.00;98.00;;;;;;5058412;28;20420;-74
2022/10/22 00:46:08;;;;;;;0.73;0.73;;;15.90;98.00;;;;;;5058411;28;20032;-74
2022/10/22 00:48:34;;;;;;;1.63;0.73;;;15.70;98.00;;;;;;5058548;28;20111;-75
2022/10/22 00:54:29;;;;;;;1.38;0.65;;;15.60;98.00;;;;;;5058628;28;20083;-74
2022/10/22 00:56:54;;;;;;;0.93;0.85;;;15.60;98.00;;;;;;5040456;28;20033;-74
2022/10/22 00:59:30;;;;;;;0.88;0.85;;;15.60;98.00;;;;;;5024354;28;20041;-74
2022/10/22 01:02:05;;;;;;;;;;;15.60;98.00;;;;;;5040875;28;20021;-74
2022/10/22 01:07:53;;;;;;;1.02;0.80;;;15.70;98.00;;;;;;5058595;28;20024;-74
2022/10/22 01:10:45;;;;;;;0.82;0.73;;;15.70;98.00;;;;;;5040286;28;20421;-74
2022/10/22 01:13:43;;;;;;;0.63;0.63;;;15.60;98.00;;;;;;5057898;28;20024;-74
2022/10/22 01:16:45;;;;;;;2.28;1.75;;;15.60;98.00;;;;;;5057640;28;20325;-74
2022/10/22 01:20:15;;;;;;;1.42;0.95;;;15.80;98.00;;;;;;5057856;28;20021;-74
2022/10/22 01:23:08;;;;;;;2.72;1.17;;;15.80;98.00;;;;;;5057642;28;20028;-75
2022/10/22 01:26:19;;;;;;;1.48;1.00;;;16.00;98.00;;;;;;5057675;28;20042;-76
2022/10/22 01:29:14;;;;;;;1.15;1.08;;;16.10;98.00;;;;;;5073294;28;20337;-76
2022/10/22 01:32:22;;;;;;;1.33;1.23;;;16.10;98.00;;;;;;5057692;28;20025;-74
2022/10/22 01:35:10;;;;;;;1.92;1.55;;;16.10;98.00;;;;;;4996337;28;20093;-74
2022/10/22 01:37:49;;;;;;;1.60;1.25;;;16.00;98.00;;;;;;4996403;28;20300;-74
2022/10/22 01:40:25;;;;;;;2.40;1.70;;;16.00;98.00;;;;;;4992321;28;20034;-73
2022/10/22 01:43:05;;;;;;;2.10;1.90;;;16.10;98.00;;;;;;4980000;28;20074;-74
2022/10/22 01:49:48;;;;;;;7.93;3.78;;;16.20;98.00;;;;;;4996264;28;20074;-74
2022/10/22 01:52:50;;;;;;;1.40;1.30;;;16.10;98.00;;;;;;4933903;29;20313;-75
2022/10/22 01:59:16;;;;;;;1.25;1.10;;;16.20;98.00;;;;;;4938391;29;20027;-74
2022/10/22 02:02:30;;;;;;;2.20;1.65;;;16.20;98.00;;;;;;4862692;29;20038;-76
2022/10/22 02:05:47;;;;;;;2.28;1.45;;;16.20;98.00;;;;;;4862859;29;20037;-74
2022/10/22 02:08:18;;;;;;;2.25;1.92;;;16.10;98.00;;;;;;4860274;29;20037;-75
2022/10/22 02:10:57;;;;;;;0.80;0.60;;;16.10;98.00;;;;;;4875661;29;20029;-75
2022/10/22 02:13:43;;;;;;;1.75;1.55;;;16.00;98.00;;;;;;4881206;29;20037;-74
2022/10/22 02:16:59;;;;;;;1.75;1.15;;;16.00;98.00;;;;;;4880814;29;20037;-74
2022/10/22 02:20:23;;;;;;;1.15;1.08;;;15.90;98.00;;;;;;4881005;29;20174;-74
2022/10/22 02:30:57;;;;;;;4.65;2.78;;;15.80;98.00;;;;;;4937953;29;20062;-75
2022/10/22 02:34:21;;;;;;;1.05;0.95;;;15.80;98.00;;;;;;4921514;29;20047;-74
2022/10/22 02:37:46;;;;;;;2.47;1.48;;;15.80;98.00;;;;;;4937498;29;20024;-74
2022/10/22 02:41:11;;;;;;;1.17;1.08;;;15.80;98.00;;;;;;5056443;28;20021;-74
2022/10/22 02:44:36;;;;;;;1.05;0.95;;;15.80;98.00;;;;;;5056406;28;20028;-74
2022/10/22 02:47:02;;;;;;;0.47;0.45;;;15.80;98.00;;;;;;5056392;28;20055;-74
2022/10/22 02:49:40;;;;;;;0.93;0.88;;;15.80;98.00;;;;;;5056384;28;20029;-75
2022/10/22 02:52:15;;;;;;;0.63;0.55;;;15.80;98.00;;;;;;5038656;28;20083;-75
2022/10/22 02:54:50;;;;;;;0.67;0.67;;;15.80;98.00;;;;;;5038507;28;20290;-74
2022/10/22 02:57:16;;;;;;;0.70;0.70;;;15.70;98.00;;;;;;5056290;28;20051;-74
2022/10/22 02:59:59;;;;;;;0.65;0.63;;;15.70;98.00;;;;;;5056303;28;20251;-74
2022/10/22 03:02:34;;;;;;;0.88;0.77;;;15.70;98.00;;;;;;5056097;28;20027;-74
2022/10/22 03:08:22;;;;;;;0.65;0.60;;;15.50;98.00;;;;;;5060363;28;20385;-74
2022/10/22 03:10:57;;;;;;;1.17;1.05;;;15.50;98.00;;;;;;5042799;28;20116;-74
2022/10/22 03:13:32;;;;;;;1.07;0.97;;;15.40;98.00;;;;;;5060154;28;20406;-75
2022/10/22 03:19:25;;;;;;;1.30;1.20;;;15.40;98.00;;;;;;5040856;28;20127;-73
2022/10/22 03:22:04;;;;;;;1.20;1.10;;;15.50;98.00;;;;;;5022653;28;20025;-74
2022/10/22 03:24:57;;;;;;;1.15;1.05;;;15.60;98.00;;;;;;5022541;28;20087;-73
2022/10/22 03:27:25;;;;;;;1.00;0.93;;;15.60;98.00;;;;;;5039886;28;20406;-74
2022/10/22 03:30:09;;;;;;;1.55;1.45;;;15.40;98.00;;;;;;5039994;28;20412;-74
2022/10/22 03:32:44;;;;;;;0.60;0.60;;;15.40;98.00;;;;;;5022177;28;20024;-74
2022/10/22 03:35:20;;;;;;;1.47;1.10;;;15.40;98.00;;;;;;5022275;28;20033;-74
2022/10/22 03:37:45;;;;;;;1.23;1.13;;;15.50;98.00;;;;;;5031814;28;20020;-73
2022/10/22 03:40:26;;;;;;;0.93;0.82;;;15.50;98.00;;;;;;5039709;28;20026;-74
2022/10/22 03:43:01;;;;;;;1.23;1.13;;;15.50;98.00;;;;;;5039767;28;20092;-75
2022/10/22 03:45:39;;;;;;;0.85;0.85;;;15.50;98.00;;;;;;5039623;28;20056;-75
2022/10/22 03:48:05;;;;;;;0.82;0.82;;;15.50;98.00;;;;;;5039854;28;20052;-74
2022/10/22 03:54:11;;;;;;;0.40;0.40;;;15.40;98.00;;;;;;5039533;28;20036;-76
2022/10/22 04:00:15;;;;;;;0.88;0.63;;;15.20;98.00;;;;;;5039945;28;20485;-74
2022/10/22 04:02:50;;;;;;;0.90;0.77;;;15.20;98.00;;;;;;5039344;28;20104;-74
2022/10/22 04:08:39;;;;;;;1.48;1.35;;;15.20;98.00;;;;;;5039674;28;20402;-74
2022/10/22 04:11:15;;;;;;;0.73;0.73;;;15.20;98.00;;;;;;5038000;28;20037;-75
2022/10/22 04:13:49;;;;;;;;;;;15.20;98.00;;;;;;5039534;28;20037;-74
2022/10/22 04:17:14;;;;;;;1.42;1.33;;;15.30;98.00;;;;;;5055590;28;19912;-74
2022/10/22 04:20:39;;;;;;;1.65;1.00;;;15.30;98.00;;;;;;5059093;28;20111;-74
2022/10/22 04:24:05;;;;;;;1.20;1.08;;;15.30;98.00;;;;;;5074576;28;20028;-75
2022/10/22 04:27:30;;;;;;;1.10;1.00;;;15.40;98.00;;;;;;5058896;28;20059;-76
2022/10/22 04:30:55;;;;;;;0.60;0.52;;;15.40;98.00;;;;;;5058857;28;20029;-76
2022/10/22 04:34:21;;;;;;;0.93;0.75;;;15.50;98.00;;;;;;5058714;28;20060;-74
2022/10/22 04:37:46;;;;;;;1.70;0.77;;;15.60;98.00;;;;;;5058777;28;20020;-76
2022/10/22 04:41:11;;;;;;;1.38;1.27;;;15.60;98.00;;;;;;5059077;28;20102;-74
2022/10/22 04:47:11;;;;;;;1.30;1.15;;;15.70;98.00;;;;;;5058760;28;20036;-75
2022/10/22 04:49:46;;;;;;;1.00;0.88;;;15.70;98.00;;;;;;5041072;28;20029;-76
2022/10/22 04:52:21;;;;;;;0.55;0.52;;;15.70;98.00;;;;;;5058265;28;20294;-74
2022/10/22 04:58:09;;;;;;;1.02;0.80;;;15.60;98.00;;;;;;5058480;28;20015;-74
2022/10/22 05:00:44;;;;;;;0.93;0.88;;;15.50;98.00;;;;;;5040635;28;20025;-73
2022/10/22 05:03:18;;;;;;;1.10;0.47;;;15.50;98.00;;;;;;5040655;28;20020;-74
2022/10/22 05:09:28;;;;;;;1.27;1.00;;;15.40;98.00;;;;;;5058390;28;20020;-74
2022/10/22 05:12:05;;;;;;;1.73;0.88;;;15.30;98.00;;;;;;5034876;28;20082;-74
2022/10/22 05:14:36;;;;;;;0.98;0.60;;;15.30;98.00;;;;;;5040153;28;20075;-74
2022/10/22 05:17:01;;;;;;;0.95;0.88;;;15.30;98.00;;;;;;5037982;28;20033;-74
2022/10/22 05:19:39;;;;;;;1.00;0.80;;;15.30;98.00;;;;;;5053588;28;20021;-74
2022/10/22 05:22:14;;;;;;;0.52;0.52;;;15.20;98.00;;;;;;5038046;28;20407;-74
2022/10/22 05:24:49;;;;;;;0.90;0.77;;;15.20;98.00;;;;;;5037772;28;20021;-74
2022/10/22 05:27:15;;;;;;;1.35;1.17;;;15.20;98.00;;;;;;5037317;28;20026;-74
2022/10/22 05:29:59;;;;;;;0.85;0.75;;;15.20;98.00;;;;;;5053542;28;20028;-74
2022/10/22 05:32:34;;;;;;;1.77;1.67;;;15.20;98.00;;;;;;5053229;28;20038;-74
2022/10/22 05:38:22;;;;;;;1.25;1.15;;;15.20;98.00;;;;;;5038332;28;20048;-73
2022/10/22 05:41:35;;;;;;;0.82;0.80;;;15.20;98.00;;;;;;5020038;28;20013;-73
2022/10/22 05:44:13;;;;;;;0.45;0.40;;;15.20;98.00;;;;;;5010665;28;20037;-74
2022/10/22 05:50:01;;;;;;;0.55;0.55;;;15.20;98.00;;;;;;5037720;28;20040;-74
2022/10/22 05:52:36;;;;;;;2.63;0.98;;;15.40;98.00;;;;;;5036028;28;20028;-73
2022/10/22 05:55:12;;;;;;;1.17;0.88;;;15.40;98.00;;;;;;5019994;28;20029;-75
2022/10/22 05:57:39;;;;;;;0.95;0.88;;;15.40;98.00;;;;;;5036049;28;20279;-74
2022/10/22 06:00:15;;;;;;;1.17;1.08;;;15.40;98.00;;;;;;5037236;28;20025;-73
2022/10/22 06:02:50;;;;;;;0.82;0.73;;;15.40;98.00;;;;;;5036198;28;20029;-74
2022/10/22 06:05:25;;;;;;;0.63;0.57;;;15.50;98.00;;;;;;5037316;28;20029;-73
2022/10/22 06:07:51;;;;;;;4.10;1.30;;;15.50;98.00;;;;;;5052625;28;20036;-73
2022/10/22 06:10:26;;;;;;;1.15;0.70;;;15.50;98.00;;;;;;5019489;28;20313;-74
2022/10/22 06:13:06;;;;;;;0.63;0.47;;;15.50;98.00;;;;;;5037042;28;20092;-75
2022/10/22 06:26:36;;;;;;;0.73;0.70;;;15.50;98.00;;;;;;5037041;28;20036;-75
2022/10/22 06:29:03;;;;;;;0.98;0.90;;;15.60;98.00;;;;;;5036542;28;20022;-74
2022/10/22 06:31:38;;;;;;;2.20;1.80;;;15.60;98.00;;;;;;5018772;28;20098;-78
2022/10/22 06:37:25;;;;;;;0.30;0.30;;;15.50;98.00;;;;;;5036325;28;20263;-73
2022/10/22 06:40:01;;;;;;;1.40;1.30;;;15.50;98.00;;;;;;5035482;28;20057;-76
2022/10/22 06:45:48;;;;;;;0.60;0.60;;;15.50;98.00;;;;;;5036311;28;20032;-73
2022/10/22 06:48:14;;;;;;;0.45;0.43;;;15.50;98.00;;;;;;5036280;28;20030;-75
2022/10/22 06:51:03;;;;;;;1.05;0.95;;;15.40;98.00;;;;;;5018863;28;20033;-75
2022/10/22 06:56:50;;;;;;;0.30;0.30;;;15.30;98.00;;;;;;5036524;28;20032;-76
2022/10/22 06:59:35;;;;;;;0.50;0.50;;;15.30;98.00;;;;;;5035684;28;20026;-76
2022/10/22 07:36:20;;;;;;;0.57;0.57;;;15.20;98.00;;;;;;5084653;23;20091;-77
2022/10/22 08:11:02;;;;;;;1.05;0.95;;;15.50;98.00;;;;;;4883628;23;20062;-72
2022/10/22 08:32:07;;;;;;;0.70;0.55;;;15.70;98.00;;;;;;5327313;23;20471;-69
2022/10/22 08:34:42;;;;;;;0.68;0.50;;;15.70;98.00;;;;;;4979860;28;20073;-71
2022/10/22 08:48:07;;;;;;;0.40;0.30;;;15.80;98.00;;;;;;4980157;28;20034;-75
2022/10/22 08:50:54;;;;;;;0.57;0.52;;;15.80;98.00;;;;;;4865698;29;20053;-74
2022/10/22 08:57:21;;;;;;;1.00;0.90;;;15.80;98.00;;;;;;4880663;29;20186;-71
2022/10/22 09:00:05;;;;;;;0.47;0.47;;;15.70;98.00;;;;;;4881895;29;20359;-72
2022/10/22 09:03:03;;;;;;;0.70;0.70;;;15.80;98.00;;;;;;4865865;29;20037;-71
2022/10/22 09:06:05;;;;;;;0.60;0.60;;;15.80;98.00;;;;;;4881802;29;20080;-72
2022/10/22 09:08:43;;;;;;;0.60;0.52;;;15.80;98.00;;;;;;4881174;29;20068;-76
2022/10/22 09:12:01;;;;;;;0.65;0.65;;;15.90;98.00;;;;;;4866933;29;20044;-77
2022/10/22 09:14:28;;;;;;;0.50;0.47;;;15.90;98.00;;;;;;4882160;29;20032;-77
2022/10/22 09:17:21;;;;;;;0.60;0.60;;;16.00;98.00;;;;;;4882207;29;20053;-75
2022/10/22 09:26:40;;;;;;;0.50;0.50;;;15.90;98.00;;;;;;4978972;28;20233;-77
2022/10/22 09:29:22;;;;;;;0.80;0.57;;;16.00;98.00;;;;;;4979016;28;20085;-76
2022/10/22 09:32:48;;;;;;;2.97;1.30;;;16.00;98.00;;;;;;4976157;28;20107;-77
2022/10/22 09:36:14;;;;;;;0.73;0.25;;;16.20;98.00;;;;;;4978796;28;20049;-76
2022/10/22 09:39:39;;;;;;;2.63;1.23;;;16.30;98.00;;;;;;4978848;28;20330;-76
2022/10/22 09:43:04;;;;;;;1.58;1.48;;;16.40;98.00;;;;;;4978555;28;20320;-77
2022/10/22 09:46:30;;;;;;;0.65;0.65;;;16.40;98.00;;;;;;4959515;28;20038;-76
2022/10/22 09:49:55;;;;;;;1.00;0.90;;;16.40;98.00;;;;;;4976921;28;20089;-76
2022/10/22 09:53:21;;;;;;;0.90;0.77;;;16.30;98.00;;;;;;4959267;28;20037;-77
2022/10/22 09:56:46;;;;;;;1.98;0.82;;;16.30;98.00;;;;;;4976498;28;20335;-76
2022/10/22 10:00:11;;;;;;;0.70;0.52;;;16.30;98.00;;;;;;4977966;28;20089;-76
2022/10/22 10:02:41;;;;;;;0.47;0.47;;;16.30;98.00;;;;;;4961121;28;20039;-76
2022/10/22 10:05:51;;;;;;;0.57;0.52;;;16.40;98.00;;;;;;4978440;28;20113;-76
2022/10/22 10:08:26;;;;;;;0.65;0.65;;;16.50;98.00;;;;;;4938102;29;20317;-76
2022/10/22 10:15:20;;;;;;;0.50;0.40;;;16.50;98.00;;;;;;4899942;29;20110;-76
2022/10/22 10:18:22;;;;;;;0.52;0.52;;;16.50;98.00;;;;;;4844262;29;20423;-76
2022/10/22 10:21:24;;;;;;;0.82;0.73;;;16.40;98.00;;;;;;4844321;29;20053;-76
2022/10/22 10:24:47;;;;;;;1.33;1.05;;;16.30;98.00;;;;;;4838422;29;20045;-76
2022/10/22 10:27:51;;;;;;;0.47;0.45;;;16.30;98.00;;;;;;4810628;29;20109;-76
2022/10/22 10:30:26;;;;;;;0.85;0.75;;;16.40;98.00;;;;;;4810663;29;20442;-76
2022/10/22 10:32:52;;;;;;;1.27;1.17;;;16.40;98.00;;;;;;4825586;29;20054;-76
2022/10/22 10:36:01;;;;;;;0.95;0.82;;;16.40;98.00;;;;;;4826206;29;20347;-77
2022/10/22 10:39:01;;;;;;;1.42;1.33;;;16.40;98.00;;;;;;4825928;29;20066;-77
2022/10/22 10:42:05;;;;;;;0.57;0.57;;;16.30;98.00;;;;;;4829795;29;20045;-77
2022/10/22 10:45:08;;;;;;;9.48;1.55;;;16.30;98.00;;;;;;4853588;29;20095;-76
2022/10/22 10:48:27;;;;;;;0.35;0.35;;;16.20;98.00;;;;;;4883828;29;20044;-76
2022/10/22 10:51:07;;;;;;;0.77;0.63;;;16.20;98.00;;;;;;4897716;29;20045;-76
2022/10/22 10:57:50;;;;;;;3.65;1.50;;;16.10;98.00;;;;;;4899535;29;20370;-76
2022/10/22 11:00:31;;;;;;;0.77;0.77;;;16.10;98.00;;;;;;4862953;29;20029;-77
2022/10/22 11:03:12;;;;;;;0.63;0.60;;;16.10;98.00;;;;;;4918148;29;20055;-76
2022/10/22 11:06:09;;;;;;;1.30;0.85;;;16.10;98.00;;;;;;4918294;29;20425;-76
2022/10/22 11:09:28;;;;;;;0.75;0.73;;;16.10;98.00;;;;;;4902318;29;20032;-76
2022/10/22 11:12:09;;;;;;;0.40;0.40;;;16.20;98.00;;;;;;4901456;29;20049;-76
2022/10/22 11:15:14;;;;;;;0.93;0.82;;;16.30;98.00;;;;;;4918274;29;20036;-76
2022/10/22 11:17:48;;;;;;;1.45;1.35;;;16.40;98.00;;;;;;4880381;29;20049;-76
2022/10/22 11:20:47;;;;;;;1.45;0.40;;;16.50;98.00;;;;;;4880678;29;20021;-76
2022/10/22 11:23:46;;;;;;;0.35;0.30;;;16.50;98.00;;;;;;4974567;28;20038;-76
2022/10/22 11:27:08;;;;;;;2.95;0.75;;;16.50;98.00;;;;;;4980435;28;20059;-76
2022/10/22 11:29:54;;;;;;;0.22;0.22;;;16.40;98.00;;;;;;4963020;28;20118;-76
2022/10/22 11:47:08;;;;;;;1.05;0.90;;;16.50;98.00;;;;;;4980896;28;20101;-76
2022/10/22 11:49:57;;;;;;;2.75;0.75;;;16.60;98.00;;;;;;4963889;28;20031;-76
2022/10/22 11:52:46;;;;;;;1.20;1.10;;;16.70;98.00;;;;;;4963469;28;20019;-77
2022/10/22 11:56:12;;;;;;;0.82;0.65;;;16.70;98.00;;;;;;4963456;28;20078;-76
2022/10/22 11:58:42;;;;;;;0.57;0.55;;;16.70;98.00;;;;;;4940219;29;20035;-77
2022/10/22 12:02:03;;;;;;;1.02;0.93;;;16.80;98.00;;;;;;4940453;29;20042;-76
2022/10/22 12:04:48;;;;;;;0.17;0.17;;;16.90;98.00;;;;;;4902229;29;20429;-76
2022/10/22 12:08:06;;;;;;;0.30;0.30;;;17.00;98.00;;;;;;4902236;29;20044;-76
2022/10/22 12:11:53;;;;;;;0.63;0.50;;;17.00;98.00;;;;;;4897141;29;20084;-77
2022/10/22 12:17:41;;;;;;;0.00;0.00;;;16.60;98.00;;;;;;4846649;29;20040;-76
2022/10/22 12:20:16;;;;;;;0.08;0.00;;;16.20;98.00;;;;;;4846280;29;20038;-76
2022/10/22 12:26:42;;;;;;;0.00;0.00;;;15.80;98.00;;;;;;4851504;29;20549;-76
2022/10/22 12:29:33;;;;;;;0.00;0.00;;;15.80;98.00;;;;;;4896349;29;20045;-76
2022/10/22 12:32:12;;;;;;;0.00;0.00;;;15.70;98.00;;;;;;4901708;29;20393;-76
2022/10/22 12:34:49;;;;;;;0.00;0.00;;;15.60;98.00;;;;;;4901698;29;20461;-76
2022/10/22 12:37:24;;;;;;;0.00;0.00;;;15.50;98.00;;;;;;4900546;29;20040;-76
2022/10/22 12:39:59;;;;;;;0.00;0.00;;;15.40;98.00;;;;;;4901886;29;20129;-76
2022/10/22 12:42:34;;;;;;;0.00;0.00;;;15.40;98.00;;;;;;4901607;29;20428;-76
2022/10/22 12:45:09;;;;;;;0.00;0.00;;;15.40;98.00;;;;;;4901695;29;20453;-76
2022/10/22 12:47:49;;;;;;;0.00;0.00;;;15.40;98.00;;;;;;4901555;29;20021;-76
2022/10/22 12:51:08;;;;;;;0.25;0.17;;;15.50;98.00;;;;;;4978154;28;20047;-76
2022/10/22 12:53:53;;;;;;;0.60;0.52;;;15.50;98.00;;;;;;4939187;29;20344;-76
2022/10/22 12:56:38;;;;;;;0.32;0.32;;;15.50;98.00;;;;;;4939286;29;20440;-76
2022/10/22 12:59:46;;;;;;;0.50;0.50;;;15.60;98.00;;;;;;4939296;29;20043;-76
2022/10/22 13:05:42;;;;;;;0.50;0.50;;;15.70;98.00;;;;;;4910918;29;20090;-76
2022/10/22 13:08:21;;;;;;;1.88;1.77;;;15.80;98.00;;;;;;4939080;29;20155;-76
2022/10/22 13:11:18;;;;;;;0.57;0.57;;;15.90;98.00;;;;;;4923106;29;20035;-76
2022/10/22 13:13:44;;;;;;;;;;;16.00;98.00;;;;;;4939432;29;20036;-76
2022/10/22 13:16:31;;;;;;;;;;;16.10;98.00;;;;;;4939585;29;19989;-76
2022/10/22 13:19:34;;;;;;;0.93;0.52;;;16.20;98.00;;;;;;4938893;29;19906;-76
2022/10/22 13:22:39;;;;;;;5.28;1.00;;;16.30;98.00;;;;;;4938613;29;20433;-76
2022/10/22 13:26:03;;;;;;;0.90;0.70;;;16.50;98.00;;;;;;4933381;29;20050;-76
2022/10/22 13:29:29;;;;;;;0.43;0.43;;;16.60;98.00;;;;;;4953531;28;20070;-76
2022/10/22 13:32:54;;;;;;;0.60;0.55;;;16.70;98.00;;;;;;4978955;28;20362;-76
2022/10/22 13:39:06;;;;;;;0.30;0.30;;;17.10;98.00;;;;;;4959892;29;20070;-76
2022/10/22 13:41:53;;;;;;;1.17;1.08;;;17.10;98.00;;;;;;4959497;28;20035;-76
2022/10/22 13:44:19;;;;;;;0.30;0.30;;;17.10;98.00;;;;;;4959435;28;20101;-76
2022/10/22 13:47:27;;;;;;;0.40;0.30;;;17.10;98.00;;;;;;4959352;28;20037;-76
2022/10/22 13:50:06;;;;;;;0.08;0.08;;;17.20;98.00;;;;;;4959239;28;20114;-76
2022/10/22 13:52:39;;;;;;;0.10;0.10;;;17.20;98.00;;;;;;4942203;29;20126;-76
2022/10/22 13:55:45;;;;;;;0.00;0.00;;;17.10;98.00;;;;;;4958358;29;20054;-76
2022/10/22 13:58:25;;;;;;;0.00;0.00;;;17.10;98.00;;;;;;4958908;29;20042;-76
2022/10/22 14:01:01;;;;;;;0.20;0.20;;;17.10;98.00;;;;;;4959234;28;20042;-76
2022/10/22 14:03:33;;;;;;;0.98;0.65;;;17.00;98.00;;;;;;4959050;28;20082;-76
2022/10/22 14:06:13;;;;;;;0.63;0.30;;;17.00;98.00;;;;;;4942100;29;20367;-76
2022/10/22 14:09:02;;;;;;;0.43;0.40;;;16.90;98.00;;;;;;4957878;29;20039;-76
2022/10/22 14:11:37;;;;;;;0.65;0.65;;;16.80;98.00;;;;;;4958941;28;20111;-76
2022/10/22 14:14:07;;;;;;;0.70;0.47;;;16.80;98.00;;;;;;4957858;29;20031;-76
2022/10/22 14:16:45;;;;;;;0.47;0.28;;;16.80;98.00;;;;;;4957990;28;20090;-76
2022/10/22 14:19:20;;;;;;;0.38;0.32;;;16.80;98.00;;;;;;4957772;29;20039;-76
2022/10/22 14:25:24;;;;;;;3.25;1.35;;;17.00;98.00;;;;;;4959033;29;20163;-76
2022/10/22 14:27:59;;;;;;;0.00;0.00;;;17.10;98.00;;;;;;4957774;28;20024;-76
2022/10/22 14:30:34;;;;;;;0.00;0.00;;;17.10;98.00;;;;;;4957819;29;20439;-76
2022/10/22 14:36:47;;;;;;;0.75;0.75;;;17.20;98.00;;;;;;4969529;28;20281;-76
2022/10/22 14:39:21;;;;;;;0.20;0.10;;;17.10;98.00;;;;;;4977835;28;20035;-76
2022/10/22 14:41:56;;;;;;;0.28;0.28;;;17.00;98.00;;;;;;4977793;28;20067;-76
2022/10/22 14:44:23;;;;;;;0.00;0.00;;;16.90;98.00;;;;;;4960700;28;20027;-76
2022/10/22 14:46:57;;;;;;;0.00;0.00;;;16.90;98.00;;;;;;4977843;28;20035;-76
2022/10/22 14:49:33;;;;;;;0.05;0.00;;;16.80;98.00;;;;;;4960609;28;20131;-76
2022/10/22 14:52:08;;;;;;;0.10;0.10;;;16.70;98.00;;;;;;4960483;28;20034;-76
2022/10/22 14:54:34;;;;;;;0.10;0.10;;;16.70;98.00;;;;;;4977634;28;20035;-76
2022/10/22 14:57:13;;;;;;;0.00;0.00;;;16.70;98.00;;;;;;4960722;28;20466;-76
2022/10/22 14:59:47;;;;;;;0.00;0.00;;;16.60;98.00;;;;;;4976897;28;20170;-76
2022/10/22 15:05:52;;;;;;;0.00;0.00;;;16.50;98.00;;;;;;4977728;28;20074;-76
2022/10/22 15:08:27;;;;;;;0.00;0.00;;;16.50;98.00;;;;;;4960373;28;20023;-76
2022/10/22 15:11:08;;;;;;;0.00;0.00;;;16.40;98.00;;;;;;4977558;28;20023;-77
2022/10/22 15:14:27;;;;;;;0.05;0.05;;;16.30;98.00;;;;;;4977611;28;20026;-76
2022/10/22 15:17:02;;;;;;;0.00;0.00;;;16.30;98.00;;;;;;4977474;28;20030;-76
2022/10/22 15:19:36;;;;;;;0.10;0.10;;;16.20;98.00;;;;;;4960181;28;20328;-76
2022/10/22 15:22:12;;;;;;;0.00;0.00;;;16.20;98.00;;;;;;4944287;28;20323;-77
2022/10/22 15:24:42;;;;;;;0.00;0.00;;;16.20;98.00;;;;;;4960313;28;20078;-76
2022/10/22 15:27:20;;;;;;;0.00;0.00;;;16.10;98.00;;;;;;4960292;28;20035;-76
2022/10/22 15:29:57;;;;;;;0.00;0.00;;;16.10;98.00;;;;;;4977344;28;20058;-76
2022/10/22 15:32:32;;;;;;;0.00;0.00;;;16.00;98.00;;;;;;4977671;28;20035;-76
2022/10/22 15:35:07;;;;;;;0.00;0.00;;;15.90;98.00;;;;;;4977157;28;20446;-77
2022/10/22 15:37:42;;;;;;;0.07;0.07;;;15.90;98.00;;;;;;4938838;29;20335;-77
2022/10/22 15:40:17;;;;;;;0.03;0.00;;;15.80;98.00;;;;;;4937852;29;20110;-76
2022/10/22 15:42:45;;;;;;;0.00;0.00;;;15.80;98.00;;;;;;4921947;29;20130;-77
2022/10/22 15:45:26;;;;;;;0.10;0.10;;;15.80;98.00;;;;;;4922410;29;20376;-77
2022/10/22 15:48:01;;;;;;;0.10;0.10;;;15.70;98.00;;;;;;4938796;29;20439;-76
2022/10/22 15:50:38;;;;;;;0.20;0.10;;;15.70;98.00;;;;;;4938757;29;20036;-76
2022/10/22 15:56:35;;;;;;;0.00;0.00;;;15.60;98.00;;;;;;4938999;29;20034;-76
2022/10/22 15:59:11;;;;;;;0.15;0.10;;;15.50;98.00;;;;;;4938646;29;20024;-77
2022/10/22 16:01:46;;;;;;;0.00;0.00;;;15.30;98.00;;;;;;4938690;29;20106;-77
2022/10/22 16:04:12;;;;;;;0.03;0.03;;;15.20;98.00;;;;;;4937877;29;20035;-76
2022/10/22 16:06:57;;;;;;;0.10;0.10;;;15.10;98.00;;;;;;4938508;29;20106;-76
2022/10/22 16:09:32;;;;;;;0.00;0.00;;;15.00;98.00;;;;;;4937535;29;20027;-76
2022/10/22 16:12:07;;;;;;;0.67;0.20;;;14.80;98.00;;;;;;4940873;29;20431;-77
2022/10/22 16:14:32;;;;;;;0.00;0.00;;;14.70;98.00;;;;;;4941921;29;20039;-76
2022/10/22 16:17:17;;;;;;;0.00;0.00;;;14.60;98.00;;;;;;4940907;29;20024;-76
2022/10/22 16:19:52;;;;;;;0.00;0.00;;;14.60;98.00;;;;;;4941794;29;20036;-76
2022/10/22 16:22:27;;;;;;;0.00;0.00;;;14.70;98.00;;;;;;4941828;29;20356;-77
2022/10/22 16:25:02;;;;;;;0.10;0.10;;;14.80;98.00;;;;;;4940805;29;20051;-76
2022/10/22 16:27:38;;;;;;;0.00;0.00;;;14.90;98.00;;;;;;4941813;29;20263;-76
2022/10/22 16:30:13;;;;;;;0.00;0.00;;;15.00;98.00;;;;;;4940698;29;20320;-76
2022/10/22 16:36:26;;;;;;;1.45;0.25;;;15.10;98.00;;;;;;4953556;28;20058;-76
2022/10/22 16:39:02;;;;;;;0.00;0.00;;;15.10;98.00;;;;;;4979966;28;20030;-76
2022/10/22 16:41:36;;;;;;;0.00;0.00;;;15.00;98.00;;;;;;4979818;28;20023;-77
2022/10/22 16:44:05;;;;;;;0.00;0.00;;;14.90;98.00;;;;;;4962677;28;20034;-76
2022/10/22 16:46:39;;;;;;;0.00;0.00;;;14.80;98.00;;;;;;4979777;28;20035;-76
2022/10/22 16:49:14;;;;;;;0.15;0.10;;;14.70;98.00;;;;;;4979716;28;20027;-76
2022/10/22 16:51:49;;;;;;;0.00;0.00;;;14.50;98.00;;;;;;4962467;28;20339;-76
2022/10/22 16:54:15;;;;;;;0.00;0.00;;;14.50;98.00;;;;;;4979773;28;20034;-76
2022/10/22 16:56:52;;;;;;;0.00;0.00;;;14.50;98.00;;;;;;4979663;28;20102;-76
2022/10/22 16:59:27;;;;;;;0.00;0.00;;;14.60;98.00;;;;;;4946541;28;20117;-76
2022/10/22 17:02:02;;;;;;;0.00;0.00;;;14.70;98.00;;;;;;4979487;28;20019;-76
2022/10/22 17:04:28;;;;;;;0.20;0.07;;;14.60;98.00;;;;;;4979544;28;20105;-76
2022/10/22 17:07:12;;;;;;;0.00;0.00;;;14.60;98.00;;;;;;4962250;28;20415;-76
2022/10/22 17:09:47;;;;;;;0.10;0.10;;;14.70;98.00;;;;;;4979498;28;20090;-76
2022/10/22 17:15:50;;;;;;;0.00;0.00;;;14.90;98.00;;;;;;4979717;28;20041;-77
2022/10/22 17:18:24;;;;;;;0.00;0.00;;;15.00;98.00;;;;;;4962115;28;20051;-76
2022/10/22 17:24:12;;;;;;;0.10;0.03;;;15.00;98.00;;;;;;4978957;28;20326;-76
2022/10/22 17:26:48;;;;;;;0.00;0.00;;;15.10;98.00;;;;;;4961946;28;20102;-76
2022/10/22 17:29:24;;;;;;;0.00;0.00;;;15.10;98.00;;;;;;4979073;28;20030;-76
2022/10/22 17:32:00;;;;;;;0.00;0.00;;;15.10;98.00;;;;;;4961923;28;20019;-76
2022/10/22 17:34:34;;;;;;;0.10;0.10;;;15.10;98.00;;;;;;4978844;28;20123;-76
2022/10/22 17:37:09;;;;;;;0.10;0.10;;;15.10;98.00;;;;;;4957963;28;20051;-76
2022/10/22 17:39:44;;;;;;;0.07;0.07;;;15.20;98.00;;;;;;4959597;28;20174;-76
2022/10/22 17:42:18;;;;;;;0.00;0.00;;;15.20;98.00;;;;;;4959415;28;20031;-77
2022/10/22 17:44:44;;;;;;;0.00;0.00;;;15.20;98.00;;;;;;4958648;28;20182;-76
2022/10/22 17:47:20;;;;;;;0.00;0.00;;;15.20;98.00;;;;;;4958374;28;20106;-77
2022/10/22 17:49:54;;;;;;;0.00;0.00;;;15.10;98.00;;;;;;4959483;28;20031;-77
2022/10/22 17:55:59;;;;;;;0.00;0.00;;;15.20;98.00;;;;;;4959422;28;20054;-77
2022/10/22 17:58:34;;;;;;;0.00;0.00;;;15.30;98.00;;;;;;4959266;28;20024;-77
2022/10/22 18:04:41;;;;;;;0.00;0.00;;;15.30;98.00;;;;;;4938494;29;20470;-76
2022/10/22 18:07:15;;;;;;;0.10;0.10;;;15.30;98.00;;;;;;4938016;29;20427;-77
2022/10/22 18:09:50;;;;;;;0.00;0.00;;;15.30;98.00;;;;;;4938103;29;20216;-76
2022/10/22 18:12:25;;;;;;;0.00;0.00;;;15.20;98.00;;;;;;4937872;29;20036;-76
2022/10/22 18:14:59;;;;;;;0.00;0.00;;;15.10;98.00;;;;;;4938048;29;20043;-77
2022/10/22 18:17:37;;;;;;;0.00;0.00;;;14.90;98.00;;;;;;4937812;29;20376;-77
2022/10/22 18:20:11;;;;;;;0.00;0.00;;;14.80;98.00;;;;;;4937764;29;20024;-77
2022/10/22 18:22:40;;;;;;;0.00;0.00;;;14.60;98.00;;;;;;4937763;29;20067;-76
2022/10/22 18:25:14;;;;;;;0.00;0.00;;;14.40;98.00;;;;;;4937742;29;20486;-76
2022/10/22 18:27:49;;;;;;;0.00;0.00;;;14.20;98.00;;;;;;4937619;29;20040;-76
2022/10/22 18:30:23;;;;;;;0.10;0.10;;;14.10;98.00;;;;;;4937632;29;20120;-76